createdAt,value
2023-04-07T00:02:01.089Z,82.09
2023-04-07T00:04:28.232Z,81.80
2023-04-07T00:06:55.173Z,82.08
2023-04-07T00:09:21.608Z,81.86
2023-04-07T00:11:47.998Z,82.07
2023-04-07T00:14:14.516Z,82.24
2023-04-07T00:16:41.044Z,83.35
2023-04-07T00:19:07.459Z,82.27
2023-04-07T00:21:33.952Z,81.37
2023-04-07T00:24:00.416Z,80.47
2023-04-07T00:26:26.842Z,79.10
2023-04-07T00:28:53.293Z,79.22
2023-04-07T00:31:19.757Z,80.45
2023-04-07T00:33:46.250Z,80.25
2023-04-07T00:36:12.805Z,80.23
2023-04-07T00:38:39.209Z,80.02
2023-04-07T00:41:05.661Z,79.41
2023-04-07T00:43:32.354Z,80.60
2023-04-07T00:45:58.962Z,80.24
2023-04-07T00:48:25.649Z,79.58
2023-04-07T00:50:52.260Z,80.03
2023-04-07T00:53:18.778Z,80.53
2023-04-07T00:55:45.325Z,80.72
2023-04-07T00:58:11.910Z,80.74
2023-04-07T01:00:41.478Z,80.59
2023-04-07T01:03:09.907Z,81.37
2023-04-07T01:05:36.483Z,80.30
2023-04-07T01:08:12.922Z,80.56
2023-04-07T01:10:52.207Z,81.24
2023-04-07T01:13:28.841Z,81.57
2023-04-07T01:15:55.550Z,81.56
2023-04-07T01:18:22.636Z,82.13
2023-04-07T01:20:50.059Z,81.22
2023-04-07T01:23:30.673Z,81.57
2023-04-07T01:26:16.025Z,82.14
2023-04-07T01:29:01.306Z,82.31
2023-04-07T01:31:27.892Z,83.20
2023-04-07T01:33:54.898Z,83.27
2023-04-07T01:36:21.492Z,83.23
2023-04-07T01:38:48.066Z,83.62
2023-04-07T01:41:14.557Z,82.54
2023-04-07T01:43:41.742Z,82.90
2023-04-07T01:46:08.456Z,83.05
2023-04-07T01:48:35.208Z,83.17
2023-04-07T01:51:01.575Z,82.93
2023-04-07T01:53:28.013Z,83.46
2023-04-07T01:55:54.521Z,83.86
2023-04-07T01:58:20.989Z,84.40
2023-04-07T02:00:47.452Z,84.25
2023-04-07T02:03:34.148Z,84.74
2023-04-07T02:06:03.550Z,83.72
2023-04-07T02:08:31.177Z,83.94
2023-04-07T02:10:58.744Z,83.36
2023-04-07T02:13:25.440Z,83.33
2023-04-07T02:15:52.233Z,83.00
2023-04-07T02:18:19.032Z,83.64
2023-04-07T02:20:45.457Z,83.76
2023-04-07T02:23:12.492Z,83.54
2023-04-07T02:25:38.955Z,83.20
2023-04-07T02:28:05.417Z,83.82
2023-04-07T02:30:33.052Z,84.74
2023-04-07T02:32:59.632Z,83.39
2023-04-07T02:35:26.201Z,83.71
2023-04-07T02:37:52.683Z,83.43
2023-04-07T02:40:19.232Z,83.96
2023-04-07T02:42:46.209Z,84.48
2023-04-07T02:45:12.661Z,84.00
2023-04-07T02:47:39.143Z,84.61
2023-04-07T02:50:05.828Z,84.20
2023-04-07T02:52:32.275Z,85.59
2023-04-07T02:54:58.691Z,84.88
2023-04-07T02:57:25.386Z,85.64
2023-04-07T02:59:51.824Z,85.98
2023-04-07T03:02:18.409Z,86.07
2023-04-07T03:04:45.018Z,87.88
2023-04-07T03:07:11.489Z,87.09
2023-04-07T03:09:37.888Z,86.27
2023-04-07T03:12:04.364Z,85.14
2023-04-07T03:14:30.778Z,84.49
2023-04-07T03:16:57.403Z,84.79
2023-04-07T03:19:23.910Z,85.18
2023-04-07T03:21:50.546Z,83.75
2023-04-07T03:24:16.972Z,83.59
2023-04-07T03:26:43.366Z,83.33
2023-04-07T03:29:09.800Z,82.28
2023-04-07T03:31:36.560Z,82.50
2023-04-07T03:34:03.440Z,81.61
2023-04-07T03:36:29.973Z,83.10
2023-04-07T03:38:56.410Z,83.58
2023-04-07T03:41:22.876Z,83.54
2023-04-07T03:43:49.447Z,83.10
2023-04-07T03:46:16.009Z,83.81
2023-04-07T03:48:42.432Z,84.68
2023-04-07T03:51:08.978Z,85.49
2023-04-07T03:53:35.488Z,84.64
2023-04-07T03:56:01.989Z,84.64
2023-04-07T03:58:28.876Z,84.06
2023-04-07T04:00:55.356Z,84.80
2023-04-07T04:03:21.896Z,84.51
2023-04-07T04:05:48.383Z,84.21
2023-04-07T04:08:14.823Z,84.79
2023-04-07T04:10:41.249Z,84.25
2023-04-07T04:13:07.874Z,84.97
2023-04-07T04:15:34.444Z,84.39
2023-04-07T04:18:00.994Z,84.77
2023-04-07T04:20:27.425Z,84.37
2023-04-07T04:22:53.923Z,84.11
2023-04-07T04:25:20.642Z,83.89
2023-04-07T04:27:47.365Z,84.20
2023-04-07T04:30:14.123Z,83.79
2023-04-07T04:32:40.621Z,84.75
2023-04-07T04:35:07.184Z,85.11
2023-04-07T04:37:33.664Z,83.19
2023-04-07T04:40:00.096Z,83.85
2023-04-07T04:42:26.683Z,83.66
2023-04-07T04:44:53.119Z,83.01
2023-04-07T04:47:19.585Z,83.55
2023-04-07T04:49:46.126Z,83.65
2023-04-07T04:52:12.644Z,83.92
2023-04-07T04:54:39.367Z,84.51
2023-04-07T04:57:05.859Z,84.44
2023-04-07T04:59:32.341Z,84.25
2023-04-07T05:01:58.893Z,83.85
2023-04-07T05:04:25.502Z,84.12
2023-04-07T05:06:52.153Z,83.75
2023-04-07T05:09:18.571Z,84.40
2023-04-07T05:11:45.001Z,83.79
2023-04-07T05:14:11.421Z,84.25
2023-04-07T05:16:38.027Z,83.33
2023-04-07T05:19:04.687Z,83.63
2023-04-07T05:21:31.170Z,83.72
2023-04-07T05:23:57.769Z,83.45
2023-04-07T05:26:24.204Z,82.89
2023-04-07T05:28:50.772Z,82.55
2023-04-07T05:31:17.193Z,83.40
2023-04-07T05:33:43.677Z,82.82
2023-04-07T05:36:10.222Z,82.69
2023-04-07T05:38:36.664Z,83.31
2023-04-07T05:41:03.095Z,84.17
2023-04-07T05:43:29.626Z,84.18
2023-04-07T05:45:56.412Z,83.60
2023-04-07T05:48:22.825Z,82.64
2023-04-07T05:50:49.281Z,82.80
2023-04-07T05:53:16.161Z,83.35
2023-04-07T05:55:42.939Z,83.71
2023-04-07T05:58:09.417Z,82.67
2023-04-07T06:00:35.852Z,81.96
2023-04-07T06:03:02.429Z,82.55
2023-04-07T06:05:29.136Z,82.74
2023-04-07T06:07:55.691Z,83.64
2023-04-07T06:10:22.127Z,83.34
2023-04-07T06:12:48.537Z,83.11
2023-04-07T06:15:15.080Z,83.38
2023-04-07T06:17:41.857Z,82.58
2023-04-07T06:20:08.475Z,82.83
2023-04-07T06:22:34.997Z,82.76
2023-04-07T06:25:01.595Z,83.07
2023-04-07T06:27:28.110Z,82.92
2023-04-07T06:29:54.517Z,82.51
2023-04-07T06:32:21.050Z,81.83
2023-04-07T06:34:47.582Z,81.26
2023-04-07T06:37:14.017Z,81.56
2023-04-07T06:39:41.132Z,81.47
2023-04-07T06:42:07.619Z,81.79
2023-04-07T06:44:34.004Z,81.59
2023-04-07T06:47:00.471Z,81.73
2023-04-07T06:49:27.056Z,81.89
2023-04-07T06:51:53.974Z,81.17
2023-04-07T06:54:20.427Z,80.97
2023-04-07T06:56:46.866Z,80.94
2023-04-07T06:59:13.390Z,79.97
2023-04-07T07:01:40.077Z,79.48
2023-04-07T07:04:07.169Z,78.95
2023-04-07T07:06:33.734Z,78.35
2023-04-07T07:09:00.200Z,78.04
2023-04-07T07:11:26.629Z,77.72
2023-04-07T07:13:53.143Z,77.25
2023-04-07T07:16:19.672Z,75.06
2023-04-07T07:18:46.191Z,75.92
2023-04-07T07:21:13.440Z,75.31
2023-04-07T07:23:39.896Z,73.71
2023-04-07T07:26:06.355Z,72.02
2023-04-07T07:28:33.034Z,70.52
2023-04-07T07:30:59.561Z,68.54
2023-04-07T07:33:26.099Z,68.07
2023-04-07T07:35:52.684Z,65.34
2023-04-07T07:38:19.723Z,62.63
2023-04-07T07:40:46.221Z,61.87
2023-04-07T07:43:12.636Z,60.00
2023-04-07T07:45:39.476Z,55.71
2023-04-07T07:48:05.971Z,57.47
2023-04-07T07:50:32.416Z,54.69
2023-04-07T07:52:58.953Z,51.97
2023-04-07T07:55:25.384Z,50.83
2023-04-07T07:57:51.821Z,50.35
2023-04-07T08:00:18.401Z,49.98
2023-04-07T08:02:45.133Z,49.79
2023-04-07T08:05:11.752Z,50.37
2023-04-07T08:07:38.339Z,51.29
2023-04-07T08:10:05.581Z,48.42
2023-04-07T08:12:32.113Z,47.96
2023-04-07T08:14:58.541Z,50.16
2023-04-07T08:17:25.109Z,49.03
2023-04-07T08:19:51.699Z,47.89
2023-04-07T08:22:18.909Z,48.28
2023-04-07T08:24:45.444Z,47.60
2023-04-07T08:27:12.225Z,46.18
2023-04-07T08:29:38.884Z,47.86
2023-04-07T08:32:05.321Z,44.63
2023-04-07T08:34:31.865Z,46.26
2023-04-07T08:36:58.331Z,45.59
2023-04-07T08:39:24.856Z,45.87
2023-04-07T08:41:51.334Z,43.49
2023-04-07T08:44:17.945Z,43.00
2023-04-07T08:46:44.871Z,43.33
2023-04-07T08:49:11.622Z,43.09
2023-04-07T08:51:38.196Z,40.50
2023-04-07T08:54:11.679Z,42.85
2023-04-07T08:56:38.472Z,43.48
2023-04-07T08:59:05.831Z,42.42
2023-04-07T09:01:32.415Z,41.25
2023-04-07T09:03:58.972Z,43.61
2023-04-07T09:06:25.401Z,46.44
2023-04-07T09:08:51.893Z,44.16
2023-04-07T09:11:18.307Z,43.38
2023-04-07T09:13:44.824Z,42.27
2023-04-07T09:16:11.291Z,41.95
2023-04-07T09:18:37.712Z,42.98
2023-04-07T09:21:04.708Z,41.97
2023-04-07T09:23:41.534Z,42.83
2023-04-07T09:26:23.796Z,41.77
2023-04-07T09:28:53.262Z,42.64
2023-04-07T09:31:19.776Z,42.52
2023-04-07T09:33:46.486Z,45.35
2023-04-07T09:36:13.815Z,45.14
2023-04-07T09:38:42.894Z,46.89
2023-04-07T09:41:10.076Z,46.92
2023-04-07T09:43:37.229Z,46.78
2023-04-07T09:46:16.743Z,48.64
2023-04-07T09:48:45.423Z,48.83
2023-04-07T09:51:15.655Z,49.46
2023-04-07T09:53:45.253Z,46.64
2023-04-07T09:56:11.902Z,44.05
2023-04-07T09:58:38.540Z,44.37
2023-04-07T10:01:05.195Z,41.54
2023-04-07T10:03:31.730Z,43.96
2023-04-07T10:05:58.216Z,46.68
2023-04-07T10:08:24.626Z,47.50
2023-04-07T10:10:51.077Z,48.86
2023-04-07T10:13:18.229Z,45.70
2023-04-07T10:15:44.671Z,44.97
2023-04-07T10:18:11.053Z,46.25
2023-04-07T10:20:39.491Z,43.16
2023-04-07T10:23:08.356Z,42.23
2023-04-07T10:25:34.734Z,42.22
2023-04-07T10:28:04.264Z,41.94
2023-04-07T10:30:31.322Z,40.12
2023-04-07T10:32:58.108Z,40.97
2023-04-07T10:35:24.737Z,41.42
2023-04-07T10:38:09.498Z,40.73
2023-04-07T10:40:36.441Z,41.75
2023-04-07T10:43:02.926Z,42.36
2023-04-07T10:45:47.518Z,44.99
2023-04-07T10:48:14.774Z,43.80
2023-04-07T10:50:41.238Z,43.02
2023-04-07T10:53:11.384Z,42.38
2023-04-07T10:55:44.357Z,43.07
2023-04-07T10:58:13.825Z,44.01
2023-04-07T11:00:40.232Z,43.36
2023-04-07T11:03:13.025Z,43.88
2023-04-07T11:05:40.081Z,44.06
2023-04-07T11:08:06.548Z,45.63
2023-04-07T11:10:33.186Z,46.41
2023-04-07T11:13:02.537Z,44.02
2023-04-07T11:15:28.942Z,45.33
2023-04-07T11:18:10.673Z,44.66
2023-04-07T11:20:45.599Z,45.43
2023-04-07T11:23:13.020Z,45.14
2023-04-07T11:25:39.517Z,46.93
2023-04-07T11:28:06.119Z,46.47
2023-04-07T11:30:32.646Z,47.49
2023-04-07T11:32:59.169Z,47.30
2023-04-07T11:35:25.624Z,45.70
2023-04-07T11:37:57.313Z,45.05
2023-04-07T11:40:34.053Z,45.76
2023-04-07T11:43:00.491Z,46.31
2023-04-07T11:45:26.870Z,46.48
2023-04-07T11:47:53.327Z,45.95
2023-04-07T11:50:41.471Z,44.96
2023-04-07T11:53:08.576Z,48.93
2023-04-07T11:55:34.992Z,48.71
2023-04-07T11:58:07.579Z,49.73
2023-04-07T12:00:34.043Z,48.14
2023-04-07T12:03:09.406Z,46.21
2023-04-07T12:05:42.953Z,45.52
2023-04-07T12:08:09.419Z,44.77
2023-04-07T12:10:35.865Z,46.46
2023-04-07T12:13:02.288Z,46.25
2023-04-07T12:15:28.866Z,45.60
2023-04-07T12:17:55.690Z,45.66
2023-04-07T12:20:22.357Z,46.40
2023-04-07T12:22:48.904Z,47.04
2023-04-07T12:25:15.348Z,46.59
2023-04-07T12:27:43.295Z,45.73
2023-04-07T12:30:10.832Z,46.60
2023-04-07T12:32:37.625Z,48.04
2023-04-07T12:35:04.166Z,46.24
2023-04-07T12:37:30.704Z,47.96
2023-04-07T12:39:57.068Z,47.50
2023-04-07T12:42:23.475Z,48.36
2023-04-07T12:44:49.911Z,47.89
2023-04-07T12:47:16.334Z,46.21
2023-04-07T12:49:42.810Z,44.44
2023-04-07T12:52:09.232Z,47.45
2023-04-07T12:54:35.589Z,48.43
2023-04-07T12:57:02.016Z,47.41
2023-04-07T12:59:28.524Z,49.16
2023-04-07T13:01:55.148Z,46.98
2023-04-07T13:04:22.007Z,49.52
2023-04-07T13:06:48.667Z,47.53
2023-04-07T13:09:15.082Z,49.33
2023-04-07T13:11:41.549Z,49.47
2023-04-07T13:14:08.046Z,49.74
2023-04-07T13:16:34.517Z,49.67
2023-04-07T13:19:00.927Z,49.45
2023-04-07T13:21:45.643Z,47.92
2023-04-07T13:24:13.702Z,48.16
2023-04-07T13:26:40.205Z,48.17
2023-04-07T13:29:06.620Z,48.62
2023-04-07T13:31:33.107Z,49.19
2023-04-07T13:33:59.727Z,47.45
2023-04-07T13:36:26.193Z,48.20
2023-04-07T13:38:52.581Z,48.78
2023-04-07T13:41:19.034Z,46.31
2023-04-07T13:43:45.530Z,47.57
2023-04-07T13:46:27.258Z,49.00
2023-04-07T13:48:54.753Z,48.84
2023-04-07T13:51:21.194Z,46.43
2023-04-07T13:53:47.896Z,47.41
2023-04-07T13:56:14.693Z,46.77
2023-04-07T13:58:41.181Z,48.56
2023-04-07T14:01:07.676Z,49.42
2023-04-07T14:03:34.205Z,46.32
2023-04-07T14:06:00.688Z,48.26
2023-04-07T14:08:27.503Z,45.72
2023-04-07T14:10:54.011Z,47.00
2023-04-07T14:13:20.464Z,49.17
2023-04-07T14:15:47.451Z,45.99
2023-04-07T14:18:14.011Z,45.37
2023-04-07T14:20:40.516Z,49.13
2023-04-07T14:23:07.067Z,46.56
2023-04-07T14:25:33.684Z,50.28
2023-04-07T14:28:00.113Z,45.93
2023-04-07T14:30:26.750Z,46.82
2023-04-07T14:32:53.231Z,47.60
2023-04-07T14:35:19.686Z,44.45
2023-04-07T14:37:46.145Z,44.84
2023-04-07T14:40:12.717Z,45.50
2023-04-07T14:42:39.647Z,44.16
2023-04-07T14:45:06.314Z,45.24
2023-04-07T14:47:32.799Z,44.08
2023-04-07T14:49:59.219Z,41.03
2023-04-07T14:52:25.705Z,44.95
2023-04-07T14:54:52.130Z,45.54
2023-04-07T14:57:18.521Z,46.01
2023-04-07T14:59:44.918Z,45.10
2023-04-07T15:02:11.610Z,45.46
2023-04-07T15:04:38.191Z,45.70
2023-04-07T15:07:04.652Z,46.36
2023-04-07T15:09:31.179Z,46.69
2023-04-07T15:11:57.642Z,46.16
2023-04-07T15:14:24.019Z,46.63
2023-04-07T15:16:50.563Z,45.66
2023-04-07T15:19:16.983Z,46.54
2023-04-07T15:21:43.506Z,47.08
2023-04-07T15:24:10.036Z,47.10
2023-04-07T15:26:36.766Z,45.87
2023-04-07T15:29:03.286Z,44.16
2023-04-07T15:31:30.090Z,45.26
2023-04-07T15:33:56.721Z,43.99
2023-04-07T15:36:23.284Z,44.18
2023-04-07T15:38:49.817Z,44.42
2023-04-07T15:41:16.349Z,42.78
2023-04-07T15:43:42.780Z,43.24
2023-04-07T15:46:09.585Z,42.91
2023-04-07T15:48:36.298Z,43.91
2023-04-07T15:51:02.753Z,45.56
2023-04-07T15:53:29.437Z,45.00
2023-04-07T15:55:55.817Z,45.27
2023-04-07T15:58:22.192Z,44.43
2023-04-07T16:00:48.765Z,44.30
2023-04-07T16:03:15.687Z,44.69
2023-04-07T16:05:42.347Z,44.67
2023-04-07T16:08:08.893Z,44.06
2023-04-07T16:10:35.602Z,45.08
2023-04-07T16:13:02.080Z,46.19
2023-04-07T16:15:39.398Z,43.66
2023-04-07T16:18:07.427Z,43.17
2023-04-07T16:20:33.963Z,42.83
2023-04-07T16:23:00.383Z,43.65
2023-04-07T16:25:26.827Z,44.19
2023-04-07T16:27:53.344Z,45.26
2023-04-07T16:30:19.899Z,44.76
2023-04-07T16:32:46.408Z,47.09
2023-04-07T16:35:13.373Z,47.00
2023-04-07T16:37:39.881Z,47.36
2023-04-07T16:40:06.765Z,47.88
2023-04-07T16:42:33.399Z,47.35
2023-04-07T16:45:00.245Z,48.15
2023-04-07T16:47:27.042Z,49.02
2023-04-07T16:49:53.724Z,49.95
2023-04-07T16:52:20.671Z,49.37
2023-04-07T16:54:47.197Z,49.81
2023-04-07T16:57:13.647Z,48.81
2023-04-07T16:59:40.048Z,49.47
2023-04-07T17:02:07.269Z,50.39
2023-04-07T17:04:34.150Z,50.10
2023-04-07T17:07:00.759Z,51.17
2023-04-07T17:09:27.778Z,51.03
2023-04-07T17:11:54.315Z,51.31
2023-04-07T17:14:20.966Z,51.63
2023-04-07T17:16:47.398Z,51.67
2023-04-07T17:19:14.091Z,52.19
2023-04-07T17:21:40.521Z,51.29
2023-04-07T17:24:07.049Z,53.50
2023-04-07T17:26:33.648Z,52.54
2023-04-07T17:29:00.022Z,53.64
2023-04-07T17:31:26.440Z,55.94
2023-04-07T17:33:53.015Z,56.07
2023-04-07T17:36:19.718Z,57.33
2023-04-07T17:38:46.142Z,58.74
2023-04-07T17:41:12.638Z,59.20
2023-04-07T17:43:39.219Z,60.50
2023-04-07T17:46:05.722Z,61.30
2023-04-07T17:48:32.235Z,62.32
2023-04-07T17:50:58.673Z,62.63
2023-04-07T17:53:25.078Z,63.21
2023-04-07T17:55:51.559Z,63.39
2023-04-07T17:58:18.950Z,63.78
2023-04-07T18:00:45.391Z,64.55
2023-04-07T18:03:11.983Z,67.45
2023-04-07T18:05:42.520Z,67.04
2023-04-07T18:08:09.214Z,67.24
2023-04-07T18:10:35.642Z,67.22
2023-04-07T18:13:02.110Z,68.91
2023-04-07T18:15:28.510Z,69.71
2023-04-07T18:17:55.045Z,71.43
2023-04-07T18:20:21.948Z,70.84
2023-04-07T18:22:49.998Z,70.76
2023-04-07T18:25:16.544Z,69.56
2023-04-07T18:27:43.307Z,70.80
2023-04-07T18:30:10.081Z,70.75
2023-04-07T18:32:36.458Z,70.67
2023-04-07T18:35:03.016Z,70.97
2023-04-07T18:37:29.439Z,70.35
2023-04-07T18:39:55.908Z,71.12
2023-04-07T18:42:22.366Z,71.27
2023-04-07T18:44:48.826Z,73.56
2023-04-07T18:47:15.266Z,74.03
2023-04-07T18:49:41.738Z,76.62
2023-04-07T18:52:08.366Z,74.51
2023-04-07T18:54:34.878Z,75.68
2023-04-07T18:57:01.308Z,75.14
2023-04-07T18:59:27.756Z,74.18
2023-04-07T19:01:54.760Z,75.09
2023-04-07T19:04:21.332Z,75.85
2023-04-07T19:06:51.236Z,75.63
2023-04-07T19:09:17.684Z,76.74
2023-04-07T19:11:44.285Z,77.72
2023-04-07T19:14:10.700Z,77.94
2023-04-07T19:16:37.834Z,77.24
2023-04-07T19:19:04.356Z,77.82
2023-04-07T19:21:30.845Z,77.70
2023-04-07T19:23:57.330Z,78.04
2023-04-07T19:26:23.731Z,77.94
2023-04-07T19:28:50.237Z,77.59
2023-04-07T19:31:16.821Z,77.40
2023-04-07T19:33:43.272Z,77.88
2023-04-07T19:36:10.231Z,78.18
2023-04-07T19:38:36.677Z,78.12
2023-04-07T19:41:03.263Z,79.38
2023-04-07T19:43:29.749Z,78.45
2023-04-07T19:45:56.136Z,78.12
2023-04-07T19:48:22.699Z,78.16
2023-04-07T19:50:49.244Z,78.44
2023-04-07T19:53:15.743Z,78.50
2023-04-07T19:55:42.750Z,79.94
2023-04-07T19:58:09.770Z,79.84
2023-04-07T20:00:36.369Z,79.85
2023-04-07T20:03:03.331Z,79.13
2023-04-07T20:05:31.315Z,79.79
2023-04-07T20:07:57.754Z,80.54
2023-04-07T20:10:24.196Z,79.99
2023-04-07T20:12:50.577Z,79.74
2023-04-07T20:15:17.076Z,80.72
2023-04-07T20:17:43.503Z,80.64
2023-04-07T20:20:10.305Z,80.46
2023-04-07T20:22:36.683Z,81.14
2023-04-07T20:25:03.159Z,81.65
2023-04-07T20:27:29.642Z,82.13
2023-04-07T20:29:56.323Z,81.38
2023-04-07T20:32:23.120Z,81.78
2023-04-07T20:34:49.485Z,82.00
2023-04-07T20:37:15.864Z,81.23
2023-04-07T20:39:42.310Z,81.38
2023-04-07T20:42:08.746Z,82.09
2023-04-07T20:44:35.133Z,82.15
2023-04-07T20:47:08.536Z,82.53
2023-04-07T20:49:35.990Z,82.23
2023-04-07T20:52:02.852Z,82.40
2023-04-07T20:54:29.353Z,83.14
2023-04-07T20:56:55.928Z,83.09
2023-04-07T20:59:22.394Z,82.30
2023-04-07T21:01:48.856Z,82.86
2023-04-07T21:04:15.511Z,83.60
2023-04-07T21:06:42.077Z,82.92
2023-04-07T21:09:08.919Z,82.83
2023-04-07T21:11:35.892Z,82.09
2023-04-07T21:14:02.515Z,83.09
2023-04-07T21:16:28.991Z,82.72
2023-04-07T21:18:55.584Z,83.43
2023-04-07T21:21:22.140Z,83.64
2023-04-07T21:23:48.598Z,83.10
2023-04-07T21:26:15.378Z,84.26
2023-04-07T21:28:41.849Z,84.00
2023-04-07T21:31:08.502Z,84.31
2023-04-07T21:33:35.054Z,84.87
2023-04-07T21:36:01.810Z,85.35
2023-04-07T21:38:28.534Z,84.79
2023-04-07T21:40:54.913Z,84.10
2023-04-07T21:43:21.273Z,83.91
2023-04-07T21:45:47.752Z,84.54
2023-04-07T21:48:14.138Z,85.30
2023-04-07T21:50:40.572Z,85.49
2023-04-07T21:53:07.131Z,85.35
2023-04-07T21:55:33.519Z,85.17
2023-04-07T21:57:59.976Z,85.12
2023-04-07T22:00:26.438Z,84.99
2023-04-07T22:02:52.913Z,84.89
2023-04-07T22:05:19.605Z,84.91
2023-04-07T22:07:46.086Z,85.20
2023-04-07T22:10:12.633Z,85.38
2023-04-07T22:12:39.008Z,84.69
2023-04-07T22:15:05.763Z,84.23
2023-04-07T22:17:32.211Z,84.37
2023-04-07T22:19:58.667Z,84.80
2023-04-07T22:22:25.254Z,85.05
2023-04-07T22:24:51.736Z,85.97
2023-04-07T22:27:18.287Z,84.92
2023-04-07T22:29:44.829Z,85.44
2023-04-07T22:32:11.263Z,85.03
2023-04-07T22:34:37.786Z,84.96
2023-04-07T22:37:04.282Z,85.48
2023-04-07T22:39:30.712Z,86.47
2023-04-07T22:41:57.112Z,85.61
2023-04-07T22:44:23.621Z,85.14
2023-04-07T22:46:50.166Z,85.59
2023-04-07T22:49:16.709Z,85.55
2023-04-07T22:51:43.296Z,85.56
2023-04-07T22:54:09.772Z,85.00
2023-04-07T22:56:36.277Z,86.11
2023-04-07T22:59:02.734Z,86.00
2023-04-07T23:01:29.258Z,85.74
2023-04-07T23:03:55.731Z,87.03
2023-04-07T23:06:22.244Z,87.52
2023-04-07T23:08:49.245Z,87.87
2023-04-07T23:11:15.708Z,87.69
2023-04-07T23:13:42.424Z,87.73
2023-04-07T23:16:12.239Z,87.21
2023-04-07T23:18:39.062Z,86.94
2023-04-07T23:21:05.580Z,87.27
2023-04-07T23:23:32.011Z,87.00
2023-04-07T23:25:58.402Z,86.98
2023-04-07T23:28:25.168Z,86.65
2023-04-07T23:30:51.569Z,87.00
2023-04-07T23:33:18.100Z,87.24
2023-04-07T23:35:44.610Z,88.31
2023-04-07T23:38:11.090Z,89.09
2023-04-07T23:40:37.479Z,90.25
2023-04-07T23:43:03.943Z,89.58
2023-04-07T23:45:30.502Z,89.02
2023-04-07T23:47:57.077Z,88.72
2023-04-07T23:50:23.612Z,88.98
2023-04-07T23:52:50.032Z,88.73
2023-04-07T23:55:16.511Z,89.17
2023-04-07T23:57:43.333Z,89.13
